sensor_id;sensor_type;location;lat;lon;timestamp;P1;durP1;ratioP1;P2;durP2;ratioP2
40621;SDS011;26324;52.040;11.528;2023-04-01T00:00:58;2.42;;;0.75;;
40621;SDS011;26324;52.040;11.528;2023-04-01T00:03:27;4.18;;;0.55;;
40621;SDS011;26324;52.040;11.528;2023-04-01T00:05:56;1.67;;;0.63;;
40621;SDS011;26324;52.040;11.528;2023-04-01T00:08:25;2.95;;;0.75;;
40621;SDS011;26324;52.040;11.528;2023-04-01T00:10:53;0.75;;;0.50;;
40621;SDS011;26324;52.040;11.528;2023-04-01T00:13:21;1.60;;;0.55;;
40621;SDS011;26324;52.040;11.528;2023-04-01T00:15:49;0.80;;;0.45;;
40621;SDS011;26324;52.040;11.528;2023-04-01T00:18:17;2.13;;;0.70;;
40621;SDS011;26324;52.040;11.528;2023-04-01T00:20:45;3.97;;;0.70;;
40621;SDS011;26324;52.040;11.528;2023-04-01T00:23:14;2.13;;;0.77;;
40621;SDS011;26324;52.040;11.528;2023-04-01T00:25:42;0.90;;;0.40;;
40621;SDS011;26324;52.040;11.528;2023-04-01T00:28:12;2.90;;;0.57;;
40621;SDS011;26324;52.040;11.528;2023-04-01T00:30:39;1.98;;;0.70;;
40621;SDS011;26324;52.040;11.528;2023-04-01T00:33:07;1.92;;;0.70;;
40621;SDS011;26324;52.040;11.528;2023-04-01T00:35:35;1.63;;;0.60;;
40621;SDS011;26324;52.040;11.528;2023-04-01T00:38:02;1.20;;;0.70;;
40621;SDS011;26324;52.040;11.528;2023-04-01T00:45:46;2.85;;;0.60;;
40621;SDS011;26324;52.040;11.528;2023-04-01T00:48:16;1.05;;;0.57;;
40621;SDS011;26324;52.040;11.528;2023-04-01T00:50:52;2.40;;;0.70;;
40621;SDS011;26324;52.040;11.528;2023-04-01T00:53:24;1.45;;;0.70;;
40621;SDS011;26324;52.040;11.528;2023-04-01T00:55:57;3.20;;;1.02;;
40621;SDS011;26324;52.040;11.528;2023-04-01T00:58:29;2.55;;;0.75;;
40621;SDS011;26324;52.040;11.528;2023-04-01T01:01:00;2.15;;;0.70;;
40621;SDS011;26324;52.040;11.528;2023-04-01T01:03:28;2.33;;;0.52;;
40621;SDS011;26324;52.040;11.528;2023-04-01T01:09:03;2.67;;;0.65;;
40621;SDS011;26324;52.040;11.528;2023-04-01T01:11:40;2.85;;;0.65;;
40621;SDS011;26324;52.040;11.528;2023-04-01T01:14:30;0.90;;;0.50;;
40621;SDS011;26324;52.040;11.528;2023-04-01T01:17:11;1.05;;;0.57;;
40621;SDS011;26324;52.040;11.528;2023-04-01T01:25:40;1.90;;;0.50;;
40621;SDS011;26324;52.040;11.528;2023-04-01T01:28:22;1.92;;;0.47;;
40621;SDS011;26324;52.040;11.528;2023-04-01T01:31:16;1.02;;;0.60;;
40621;SDS011;26324;52.040;11.528;2023-04-01T01:33:57;1.92;;;0.52;;
40621;SDS011;26324;52.040;11.528;2023-04-01T01:36:37;2.92;;;0.80;;
40621;SDS011;26324;52.040;11.528;2023-04-01T01:39:09;0.90;;;0.50;;
40621;SDS011;26324;52.040;11.528;2023-04-01T01:41:37;1.85;;;0.40;;
40621;SDS011;26324;52.040;11.528;2023-04-01T01:44:08;2.25;;;0.90;;
40621;SDS011;26324;52.040;11.528;2023-04-01T01:46:38;2.15;;;0.65;;
40621;SDS011;26324;52.040;11.528;2023-04-01T01:49:07;3.75;;;0.75;;
40621;SDS011;26324;52.040;11.528;2023-04-01T01:51:38;2.13;;;0.85;;
40621;SDS011;26324;52.040;11.528;2023-04-01T01:54:13;3.90;;;0.95;;
40621;SDS011;26324;52.040;11.528;2023-04-01T01:56:41;4.57;;;0.60;;
40621;SDS011;26324;52.040;11.528;2023-04-01T01:59:15;0.75;;;0.50;;
40621;SDS011;26324;52.040;11.528;2023-04-01T02:01:48;2.40;;;0.55;;
40621;SDS011;26324;52.040;11.528;2023-04-01T02:04:18;2.08;;;0.52;;
40621;SDS011;26324;52.040;11.528;2023-04-01T02:06:53;1.02;;;0.50;;
40621;SDS011;26324;52.040;11.528;2023-04-01T02:09:26;5.70;;;0.60;;
40621;SDS011;26324;52.040;11.528;2023-04-01T02:14:26;1.23;;;0.70;;
40621;SDS011;26324;52.040;11.528;2023-04-01T02:17:04;2.53;;;0.88;;
40621;SDS011;26324;52.040;11.528;2023-04-01T02:19:50;1.20;;;0.50;;
40621;SDS011;26324;52.040;11.528;2023-04-01T02:22:48;2.67;;;0.77;;
40621;SDS011;26324;52.040;11.528;2023-04-01T02:25:18;2.38;;;0.60;;
40621;SDS011;26324;52.040;11.528;2023-04-01T02:27:51;4.53;;;0.88;;
40621;SDS011;26324;52.040;11.528;2023-04-01T02:30:19;1.15;;;0.60;;
40621;SDS011;26324;52.040;11.528;2023-04-01T02:32:47;4.78;;;0.70;;
40621;SDS011;26324;52.040;11.528;2023-04-01T02:35:16;1.73;;;0.95;;
40621;SDS011;26324;52.040;11.528;2023-04-01T02:37:45;2.65;;;0.93;;
40621;SDS011;26324;52.040;11.528;2023-04-01T02:40:15;1.00;;;0.70;;
40621;SDS011;26324;52.040;11.528;2023-04-01T02:42:44;3.47;;;0.80;;
40621;SDS011;26324;52.040;11.528;2023-04-01T02:45:13;1.10;;;0.63;;
40621;SDS011;26324;52.040;11.528;2023-04-01T02:47:41;3.25;;;1.00;;
40621;SDS011;26324;52.040;11.528;2023-04-01T02:50:09;1.25;;;0.73;;
40621;SDS011;26324;52.040;11.528;2023-04-01T02:52:36;1.08;;;0.47;;
40621;SDS011;26324;52.040;11.528;2023-04-01T02:55:04;5.05;;;0.90;;
40621;SDS011;26324;52.040;11.528;2023-04-01T02:57:33;8.90;;;1.08;;
40621;SDS011;26324;52.040;11.528;2023-04-01T03:00:01;3.15;;;1.00;;
40621;SDS011;26324;52.040;11.528;2023-04-01T03:02:28;5.25;;;0.82;;
40621;SDS011;26324;52.040;11.528;2023-04-01T03:04:55;2.10;;;1.17;;
40621;SDS011;26324;52.040;11.528;2023-04-01T03:07:23;4.45;;;0.88;;
40621;SDS011;26324;52.040;11.528;2023-04-01T03:09:50;1.70;;;0.80;;
40621;SDS011;26324;52.040;11.528;2023-04-01T03:12:17;2.92;;;0.70;;
40621;SDS011;26324;52.040;11.528;2023-04-01T03:14:49;1.77;;;0.90;;
40621;SDS011;26324;52.040;11.528;2023-04-01T03:20:36;2.50;;;0.70;;
40621;SDS011;26324;52.040;11.528;2023-04-01T03:23:03;2.45;;;0.80;;
40621;SDS011;26324;52.040;11.528;2023-04-01T03:25:30;3.55;;;1.20;;
40621;SDS011;26324;52.040;11.528;2023-04-01T03:27:58;4.93;;;1.17;;
40621;SDS011;26324;52.040;11.528;2023-04-01T03:30:26;1.88;;;0.60;;
40621;SDS011;26324;52.040;11.528;2023-04-01T03:32:54;1.95;;;0.70;;
40621;SDS011;26324;52.040;11.528;2023-04-01T03:35:21;1.88;;;0.95;;
40621;SDS011;26324;52.040;11.528;2023-04-01T03:37:52;4.53;;;0.93;;
40621;SDS011;26324;52.040;11.528;2023-04-01T03:40:20;1.73;;;1.00;;
40621;SDS011;26324;52.040;11.528;2023-04-01T03:42:48;1.77;;;0.70;;
40621;SDS011;26324;52.040;11.528;2023-04-01T03:45:15;3.28;;;1.15;;
40621;SDS011;26324;52.040;11.528;2023-04-01T03:47:43;3.05;;;0.80;;
40621;SDS011;26324;52.040;11.528;2023-04-01T03:50:11;1.55;;;0.60;;
40621;SDS011;26324;52.040;11.528;2023-04-01T03:52:38;5.78;;;1.10;;
40621;SDS011;26324;52.040;11.528;2023-04-01T03:55:05;1.52;;;0.90;;
40621;SDS011;26324;52.040;11.528;2023-04-01T03:57:34;2.67;;;0.70;;
40621;SDS011;26324;52.040;11.528;2023-04-01T04:00:12;3.13;;;0.80;;
40621;SDS011;26324;52.040;11.528;2023-04-01T04:02:39;3.58;;;0.77;;
40621;SDS011;26324;52.040;11.528;2023-04-01T04:05:08;3.28;;;0.88;;
40621;SDS011;26324;52.040;11.528;2023-04-01T04:07:36;1.13;;;0.85;;
40621;SDS011;26324;52.040;11.528;2023-04-01T04:10:07;2.08;;;0.80;;
40621;SDS011;26324;52.040;11.528;2023-04-01T04:12:35;1.60;;;0.82;;
40621;SDS011;26324;52.040;11.528;2023-04-01T04:15:02;1.88;;;0.60;;
40621;SDS011;26324;52.040;11.528;2023-04-01T04:17:30;1.35;;;0.85;;
40621;SDS011;26324;52.040;11.528;2023-04-01T04:19:57;2.05;;;0.85;;
40621;SDS011;26324;52.040;11.528;2023-04-01T04:22:24;4.60;;;0.75;;
40621;SDS011;26324;52.040;11.528;2023-04-01T04:24:52;3.63;;;0.95;;
40621;SDS011;26324;52.040;11.528;2023-04-01T04:27:19;1.55;;;0.73;;
40621;SDS011;26324;52.040;11.528;2023-04-01T04:29:55;2.40;;;0.70;;
40621;SDS011;26324;52.040;11.528;2023-04-01T04:32:23;2.33;;;0.63;;
40621;SDS011;26324;52.040;11.528;2023-04-01T04:34:51;2.85;;;0.95;;
40621;SDS011;26324;52.040;11.528;2023-04-01T04:37:19;1.67;;;0.57;;
40621;SDS011;26324;52.040;11.528;2023-04-01T04:39:46;2.15;;;0.95;;
40621;SDS011;26324;52.040;11.528;2023-04-01T04:42:13;2.30;;;0.73;;
40621;SDS011;26324;52.040;11.528;2023-04-01T04:44:41;2.30;;;0.82;;
40621;SDS011;26324;52.040;11.528;2023-04-01T04:47:10;2.55;;;0.73;;
40621;SDS011;26324;52.040;11.528;2023-04-01T04:49:37;2.55;;;0.80;;
40621;SDS011;26324;52.040;11.528;2023-04-01T04:52:08;2.95;;;0.60;;
40621;SDS011;26324;52.040;11.528;2023-04-01T04:58:19;1.05;;;0.55;;
40621;SDS011;26324;52.040;11.528;2023-04-01T05:00:46;2.55;;;0.90;;
40621;SDS011;26324;52.040;11.528;2023-04-01T05:03:29;1.65;;;0.40;;
40621;SDS011;26324;52.040;11.528;2023-04-01T05:05:57;4.28;;;0.70;;
40621;SDS011;26324;52.040;11.528;2023-04-01T05:08:24;0.85;;;0.50;;
40621;SDS011;26324;52.040;11.528;2023-04-01T05:10:51;1.42;;;0.55;;
40621;SDS011;26324;52.040;11.528;2023-04-01T05:13:19;3.97;;;0.73;;
40621;SDS011;26324;52.040;11.528;2023-04-01T05:15:47;2.53;;;0.90;;
40621;SDS011;26324;52.040;11.528;2023-04-01T05:18:15;1.80;;;0.80;;
40621;SDS011;26324;52.040;11.528;2023-04-01T05:20:50;1.13;;;0.80;;
40621;SDS011;26324;52.040;11.528;2023-04-01T05:23:20;1.52;;;0.90;;
40621;SDS011;26324;52.040;11.528;2023-04-01T05:25:49;1.83;;;0.40;;
40621;SDS011;26324;52.040;11.528;2023-04-01T05:28:18;1.38;;;0.52;;
40621;SDS011;26324;52.040;11.528;2023-04-01T05:33:20;1.90;;;0.50;;
40621;SDS011;26324;52.040;11.528;2023-04-01T05:35:48;2.15;;;0.70;;
40621;SDS011;26324;52.040;11.528;2023-04-01T05:38:15;2.65;;;1.30;;
40621;SDS011;26324;52.040;11.528;2023-04-01T05:40:42;2.95;;;1.10;;
40621;SDS011;26324;52.040;11.528;2023-04-01T05:43:10;3.65;;;0.73;;
40621;SDS011;26324;52.040;11.528;2023-04-01T05:45:38;1.35;;;0.65;;
40621;SDS011;26324;52.040;11.528;2023-04-01T05:48:14;1.23;;;0.52;;
40621;SDS011;26324;52.040;11.528;2023-04-01T05:50:43;3.00;;;1.15;;
40621;SDS011;26324;52.040;11.528;2023-04-01T05:53:11;2.55;;;0.70;;
40621;SDS011;26324;52.040;11.528;2023-04-01T05:55:41;3.03;;;0.63;;
40621;SDS011;26324;52.040;11.528;2023-04-01T05:58:09;1.33;;;0.75;;
40621;SDS011;26324;52.040;11.528;2023-04-01T06:00:38;2.70;;;0.55;;
40621;SDS011;26324;52.040;11.528;2023-04-01T06:03:06;0.80;;;0.40;;
40621;SDS011;26324;52.040;11.528;2023-04-01T06:05:38;4.38;;;1.55;;
40621;SDS011;26324;52.040;11.528;2023-04-01T06:08:15;6.88;;;2.80;;
40621;SDS011;26324;52.040;11.528;2023-04-01T06:13:46;5.03;;;1.20;;
40621;SDS011;26324;52.040;11.528;2023-04-01T06:22:26;3.80;;;0.70;;
40621;SDS011;26324;52.040;11.528;2023-04-01T06:28:22;1.30;;;0.60;;
40621;SDS011;26324;52.040;11.528;2023-04-01T06:31:03;0.77;;;0.40;;
40621;SDS011;26324;52.040;11.528;2023-04-01T06:42:54;1.60;;;0.50;;
40621;SDS011;26324;52.040;11.528;2023-04-01T06:46:15;1.52;;;0.70;;
40621;SDS011;26324;52.040;11.528;2023-04-01T06:52:56;2.65;;;1.00;;
40621;SDS011;26324;52.040;11.528;2023-04-01T06:55:45;2.72;;;0.93;;
40621;SDS011;26324;52.040;11.528;2023-04-01T06:58:22;3.88;;;1.00;;
40621;SDS011;26324;52.040;11.528;2023-04-01T07:00:54;1.58;;;0.95;;
40621;SDS011;26324;52.040;11.528;2023-04-01T07:06:02;2.70;;;0.88;;
40621;SDS011;26324;52.040;11.528;2023-04-01T07:08:38;2.67;;;0.80;;
40621;SDS011;26324;52.040;11.528;2023-04-01T07:11:09;1.20;;;0.73;;
40621;SDS011;26324;52.040;11.528;2023-04-01T07:14:10;1.02;;;0.70;;
40621;SDS011;26324;52.040;11.528;2023-04-01T07:16:51;5.40;;;1.05;;
40621;SDS011;26324;52.040;11.528;2023-04-01T07:22:51;2.58;;;0.88;;
40621;SDS011;26324;52.040;11.528;2023-04-01T07:25:36;2.42;;;0.90;;
40621;SDS011;26324;52.040;11.528;2023-04-01T07:28:29;1.65;;;0.63;;
40621;SDS011;26324;52.040;11.528;2023-04-01T07:34:27;2.50;;;1.00;;
40621;SDS011;26324;52.040;11.528;2023-04-01T07:37:05;2.33;;;0.90;;
40621;SDS011;26324;52.040;11.528;2023-04-01T07:39:53;2.40;;;0.85;;
40621;SDS011;26324;52.040;11.528;2023-04-01T07:45:38;3.35;;;1.40;;
40621;SDS011;26324;52.040;11.528;2023-04-01T07:56:24;8.25;;;3.35;;
40621;SDS011;26324;52.040;11.528;2023-04-01T08:02:43;5.38;;;1.73;;
40621;SDS011;26324;52.040;11.528;2023-04-01T08:08:11;4.65;;;1.08;;
40621;SDS011;26324;52.040;11.528;2023-04-01T08:11:20;2.10;;;0.60;;
40621;SDS011;26324;52.040;11.528;2023-04-01T08:17:43;4.00;;;1.80;;
40621;SDS011;26324;52.040;11.528;2023-04-01T08:20:53;3.78;;;2.08;;
40621;SDS011;26324;52.040;11.528;2023-04-01T08:23:32;5.72;;;2.13;;
40621;SDS011;26324;52.040;11.528;2023-04-01T08:28:51;2.42;;;0.75;;
40621;SDS011;26324;52.040;11.528;2023-04-01T08:34:00;1.75;;;0.68;;
40621;SDS011;26324;52.040;11.528;2023-04-01T08:36:34;1.40;;;0.70;;
40621;SDS011;26324;52.040;11.528;2023-04-01T08:39:15;1.45;;;0.50;;
40621;SDS011;26324;52.040;11.528;2023-04-01T08:42:05;1.13;;;0.40;;
40621;SDS011;26324;52.040;11.528;2023-04-01T08:50:26;1.75;;;0.60;;
40621;SDS011;26324;52.040;11.528;2023-04-01T08:53:39;0.60;;;0.30;;
40621;SDS011;26324;52.040;11.528;2023-04-01T08:56:42;2.45;;;0.80;;
40621;SDS011;26324;52.040;11.528;2023-04-01T09:17:29;2.28;;;0.60;;
40621;SDS011;26324;52.040;11.528;2023-04-01T09:22:53;1.65;;;0.40;;
40621;SDS011;26324;52.040;11.528;2023-04-01T09:25:41;1.20;;;0.30;;
40621;SDS011;26324;52.040;11.528;2023-04-01T09:28:28;0.57;;;0.45;;
40621;SDS011;26324;52.040;11.528;2023-04-01T09:31:17;0.75;;;0.32;;
40621;SDS011;26324;52.040;11.528;2023-04-01T09:37:17;0.90;;;0.32;;
40621;SDS011;26324;52.040;11.528;2023-04-01T09:40:09;1.27;;;0.38;;
40621;SDS011;26324;52.040;11.528;2023-04-01T09:42:53;2.95;;;0.50;;
40621;SDS011;26324;52.040;11.528;2023-04-01T09:48:41;1.42;;;0.40;;
40621;SDS011;26324;52.040;11.528;2023-04-01T09:55:03;0.52;;;0.38;;
40621;SDS011;26324;52.040;11.528;2023-04-01T10:09:33;1.08;;;0.40;;
40621;SDS011;26324;52.040;11.528;2023-04-01T10:21:16;0.70;;;0.30;;
40621;SDS011;26324;52.040;11.528;2023-04-01T10:27:57;0.90;;;0.40;;
40621;SDS011;26324;52.040;11.528;2023-04-01T10:30:38;1.23;;;0.30;;
40621;SDS011;26324;52.040;11.528;2023-04-01T10:33:57;0.52;;;0.30;;
40621;SDS011;26324;52.040;11.528;2023-04-01T10:39:49;0.60;;;0.30;;
40621;SDS011;26324;52.040;11.528;2023-04-01T10:42:40;1.35;;;0.30;;
40621;SDS011;26324;52.040;11.528;2023-04-01T10:48:48;0.85;;;0.40;;
40621;SDS011;26324;52.040;11.528;2023-04-01T10:51:53;0.73;;;0.30;;
40621;SDS011;26324;52.040;11.528;2023-04-01T10:55:28;0.57;;;0.20;;
40621;SDS011;26324;52.040;11.528;2023-04-01T10:58:53;0.55;;;0.30;;
40621;SDS011;26324;52.040;11.528;2023-04-01T11:02:24;1.20;;;0.50;;
40621;SDS011;26324;52.040;11.528;2023-04-01T11:08:34;3.85;;;2.08;;
40621;SDS011;26324;52.040;11.528;2023-04-01T11:14:21;0.38;;;0.20;;
40621;SDS011;26324;52.040;11.528;2023-04-01T11:36:54;1.52;;;0.40;;
40621;SDS011;26324;52.040;11.528;2023-04-01T11:46:37;0.52;;;0.20;;
40621;SDS011;26324;52.040;11.528;2023-04-01T11:55:15;0.20;;;0.20;;
40621;SDS011;26324;52.040;11.528;2023-04-01T12:11:41;0.40;;;0.20;;
40621;SDS011;26324;52.040;11.528;2023-04-01T12:14:27;0.47;;;0.30;;
40621;SDS011;26324;52.040;11.528;2023-04-01T12:26:11;0.40;;;0.10;;
40621;SDS011;26324;52.040;11.528;2023-04-01T12:40:17;0.10;;;0.00;;
40621;SDS011;26324;52.040;11.528;2023-04-01T12:45:29;0.20;;;0.10;;
40621;SDS011;26324;52.040;11.528;2023-04-01T12:56:31;0.60;;;0.20;;
40621;SDS011;26324;52.040;11.528;2023-04-01T13:05:12;0.10;;;0.10;;
40621;SDS011;26324;52.040;11.528;2023-04-01T13:08:04;0.20;;;0.10;;
40621;SDS011;26324;52.040;11.528;2023-04-01T13:11:02;0.70;;;0.20;;
40621;SDS011;26324;52.040;11.528;2023-04-01T13:13:48;0.32;;;0.20;;
40621;SDS011;26324;52.040;11.528;2023-04-01T13:28:06;0.60;;;0.20;;
40621;SDS011;26324;52.040;11.528;2023-04-01T13:30:44;3.13;;;1.02;;
40621;SDS011;26324;52.040;11.528;2023-04-01T13:44:41;0.63;;;0.20;;
40621;SDS011;26324;52.040;11.528;2023-04-01T13:47:29;1.85;;;0.20;;
40621;SDS011;26324;52.040;11.528;2023-04-01T13:55:46;0.52;;;0.28;;
40621;SDS011;26324;52.040;11.528;2023-04-01T14:01:32;0.73;;;0.30;;
40621;SDS011;26324;52.040;11.528;2023-04-01T14:10:09;2.17;;;0.30;;
40621;SDS011;26324;52.040;11.528;2023-04-01T14:12:58;1.15;;;0.50;;
40621;SDS011;26324;52.040;11.528;2023-04-01T14:18:30;0.80;;;0.40;;
40621;SDS011;26324;52.040;11.528;2023-04-01T14:21:17;0.85;;;0.50;;
40621;SDS011;26324;52.040;11.528;2023-04-01T14:24:24;2.88;;;1.38;;
40621;SDS011;26324;52.040;11.528;2023-04-01T14:27:11;2.35;;;1.60;;
40621;SDS011;26324;52.040;11.528;2023-04-01T14:32:56;1.83;;;0.60;;
40621;SDS011;26324;52.040;11.528;2023-04-01T14:35:35;0.98;;;0.43;;
40621;SDS011;26324;52.040;11.528;2023-04-01T14:41:12;1.02;;;0.35;;
40621;SDS011;26324;52.040;11.528;2023-04-01T14:46:34;0.68;;;0.30;;
40621;SDS011;26324;52.040;11.528;2023-04-01T14:49:04;0.10;;;0.10;;
40621;SDS011;26324;52.040;11.528;2023-04-01T14:51:50;0.50;;;0.30;;
40621;SDS011;26324;52.040;11.528;2023-04-01T14:54:32;0.77;;;0.40;;
40621;SDS011;26324;52.040;11.528;2023-04-01T14:57:15;2.53;;;1.23;;
40621;SDS011;26324;52.040;11.528;2023-04-01T15:00:41;2.60;;;1.20;;
40621;SDS011;26324;52.040;11.528;2023-04-01T15:02:59;1.02;;;0.70;;
40621;SDS011;26324;52.040;11.528;2023-04-01T15:05:56;2.25;;;1.20;;
40621;SDS011;26324;52.040;11.528;2023-04-01T15:11:44;2.92;;;1.50;;
40621;SDS011;26324;52.040;11.528;2023-04-01T15:25:31;2.17;;;1.00;;
40621;SDS011;26324;52.040;11.528;2023-04-01T15:28:19;1.73;;;1.10;;
40621;SDS011;26324;52.040;11.528;2023-04-01T15:31:15;7.38;;;2.40;;
40621;SDS011;26324;52.040;11.528;2023-04-01T15:33:52;3.55;;;2.00;;
40621;SDS011;26324;52.040;11.528;2023-04-01T15:36:38;3.30;;;1.40;;
40621;SDS011;26324;52.040;11.528;2023-04-01T15:39:15;2.60;;;1.77;;
40621;SDS011;26324;52.040;11.528;2023-04-01T15:41:56;3.15;;;1.70;;
40621;SDS011;26324;52.040;11.528;2023-04-01T15:44:37;3.53;;;1.73;;
40621;SDS011;26324;52.040;11.528;2023-04-01T15:48:13;4.20;;;2.28;;
40621;SDS011;26324;52.040;11.528;2023-04-01T15:53:20;3.85;;;2.05;;
40621;SDS011;26324;52.040;11.528;2023-04-01T16:01:34;3.50;;;1.80;;
40621;SDS011;26324;52.040;11.528;2023-04-01T16:07:10;2.33;;;1.35;;
40621;SDS011;26324;52.040;11.528;2023-04-01T16:09:49;3.15;;;1.73;;
40621;SDS011;26324;52.040;11.528;2023-04-01T16:12:44;3.03;;;1.42;;
40621;SDS011;26324;52.040;11.528;2023-04-01T16:21:07;3.00;;;1.65;;
40621;SDS011;26324;52.040;11.528;2023-04-01T16:23:51;3.22;;;1.70;;
40621;SDS011;26324;52.040;11.528;2023-04-01T16:37:53;2.20;;;1.10;;
40621;SDS011;26324;52.040;11.528;2023-04-01T16:40:43;2.25;;;1.08;;
40621;SDS011;26324;52.040;11.528;2023-04-01T16:43:50;1.75;;;1.00;;
40621;SDS011;26324;52.040;11.528;2023-04-01T16:56:55;2.65;;;1.10;;
40621;SDS011;26324;52.040;11.528;2023-04-01T16:59:33;1.85;;;1.00;;
40621;SDS011;26324;52.040;11.528;2023-04-01T17:07:19;1.70;;;1.00;;
40621;SDS011;26324;52.040;11.528;2023-04-01T17:13:03;2.05;;;0.90;;
40621;SDS011;26324;52.040;11.528;2023-04-01T17:15:41;1.10;;;0.90;;
40621;SDS011;26324;52.040;11.528;2023-04-01T17:18:35;2.55;;;0.90;;
40621;SDS011;26324;52.040;11.528;2023-04-01T17:26:54;3.17;;;1.27;;
40621;SDS011;26324;52.040;11.528;2023-04-01T17:52:55;2.70;;;1.33;;
40621;SDS011;26324;52.040;11.528;2023-04-01T17:55:36;2.53;;;0.82;;
40621;SDS011;26324;52.040;11.528;2023-04-01T17:58:22;1.83;;;1.10;;
40621;SDS011;26324;52.040;11.528;2023-04-01T18:01:24;1.75;;;0.93;;
40621;SDS011;26324;52.040;11.528;2023-04-01T18:04:06;1.63;;;0.80;;
40621;SDS011;26324;52.040;11.528;2023-04-01T18:09:09;2.63;;;1.20;;
40621;SDS011;26324;52.040;11.528;2023-04-01T18:14:56;1.35;;;0.77;;
40621;SDS011;26324;52.040;11.528;2023-04-01T18:17:46;1.35;;;0.80;;
40621;SDS011;26324;52.040;11.528;2023-04-01T18:23:59;1.77;;;0.90;;
40621;SDS011;26324;52.040;11.528;2023-04-01T18:26:38;1.75;;;0.90;;
40621;SDS011;26324;52.040;11.528;2023-04-01T18:29:20;2.95;;;1.48;;
40621;SDS011;26324;52.040;11.528;2023-04-01T18:32:14;0.90;;;0.68;;
40621;SDS011;26324;52.040;11.528;2023-04-01T18:38:11;3.17;;;1.02;;
40621;SDS011;26324;52.040;11.528;2023-04-01T18:40:47;2.03;;;1.30;;
40621;SDS011;26324;52.040;11.528;2023-04-01T18:45:56;2.00;;;1.27;;
40621;SDS011;26324;52.040;11.528;2023-04-01T18:51:20;1.17;;;0.93;;
40621;SDS011;26324;52.040;11.528;2023-04-01T18:56:43;2.78;;;1.00;;
40621;SDS011;26324;52.040;11.528;2023-04-01T18:59:16;1.58;;;1.00;;
40621;SDS011;26324;52.040;11.528;2023-04-01T19:02:00;1.83;;;0.85;;
40621;SDS011;26324;52.040;11.528;2023-04-01T19:04:36;1.50;;;0.80;;
40621;SDS011;26324;52.040;11.528;2023-04-01T19:10:13;2.20;;;1.15;;
40621;SDS011;26324;52.040;11.528;2023-04-01T19:18:48;1.10;;;0.73;;
40621;SDS011;26324;52.040;11.528;2023-04-01T19:21:59;2.03;;;0.75;;
40621;SDS011;26324;52.040;11.528;2023-04-01T19:24:34;1.48;;;0.82;;
40621;SDS011;26324;52.040;11.528;2023-04-01T19:35:42;2.17;;;0.80;;
40621;SDS011;26324;52.040;11.528;2023-04-01T19:44:04;1.40;;;0.85;;
40621;SDS011;26324;52.040;11.528;2023-04-01T19:46:36;1.40;;;0.70;;
40621;SDS011;26324;52.040;11.528;2023-04-01T19:49:21;1.10;;;0.57;;
40621;SDS011;26324;52.040;11.528;2023-04-01T20:00:41;1.40;;;0.60;;
40621;SDS011;26324;52.040;11.528;2023-04-01T20:08:59;1.15;;;0.70;;
40621;SDS011;26324;52.040;11.528;2023-04-01T20:11:44;1.20;;;0.45;;
40621;SDS011;26324;52.040;11.528;2023-04-01T20:14:22;0.98;;;0.65;;
40621;SDS011;26324;52.040;11.528;2023-04-01T20:16:54;1.30;;;0.73;;
40621;SDS011;26324;52.040;11.528;2023-04-01T20:20:03;2.08;;;0.88;;
40621;SDS011;26324;52.040;11.528;2023-04-01T20:25:20;0.85;;;0.60;;
40621;SDS011;26324;52.040;11.528;2023-04-01T20:27:55;1.85;;;0.75;;
40621;SDS011;26324;52.040;11.528;2023-04-01T20:30:50;1.23;;;0.77;;
40621;SDS011;26324;52.040;11.528;2023-04-01T20:36:31;2.10;;;1.02;;
40621;SDS011;26324;52.040;11.528;2023-04-01T20:42:16;1.65;;;1.15;;
40621;SDS011;26324;52.040;11.528;2023-04-01T20:45:18;1.73;;;0.90;;
40621;SDS011;26324;52.040;11.528;2023-04-01T20:48:39;1.20;;;1.02;;
40621;SDS011;26324;52.040;11.528;2023-04-01T20:51:24;2.60;;;1.40;;
40621;SDS011;26324;52.040;11.528;2023-04-01T20:54:00;1.38;;;1.00;;
40621;SDS011;26324;52.040;11.528;2023-04-01T21:08:47;1.85;;;1.25;;
40621;SDS011;26324;52.040;11.528;2023-04-01T21:10:59;2.35;;;1.83;;
40621;SDS011;26324;52.040;11.528;2023-04-01T21:16:33;2.95;;;0.77;;
40621;SDS011;26324;52.040;11.528;2023-04-01T21:22:22;6.68;;;1.73;;
40621;SDS011;26324;52.040;11.528;2023-04-01T21:28:40;5.70;;;1.25;;
40621;SDS011;26324;52.040;11.528;2023-04-01T21:36:08;3.70;;;1.63;;
40621;SDS011;26324;52.040;11.528;2023-04-01T21:41:50;3.78;;;1.38;;
40621;SDS011;26324;52.040;11.528;2023-04-01T21:50:35;1.63;;;1.38;;
40621;SDS011;26324;52.040;11.528;2023-04-01T21:58:50;2.72;;;1.13;;
40621;SDS011;26324;52.040;11.528;2023-04-01T22:04:31;6.30;;;1.50;;
40621;SDS011;26324;52.040;11.528;2023-04-01T22:09:55;3.03;;;1.88;;
40621;SDS011;26324;52.040;11.528;2023-04-01T22:12:41;4.57;;;2.03;;
40621;SDS011;26324;52.040;11.528;2023-04-01T22:18:04;2.15;;;1.40;;
40621;SDS011;26324;52.040;11.528;2023-04-01T22:20:59;2.40;;;1.25;;
40621;SDS011;26324;52.040;11.528;2023-04-01T22:26:29;4.78;;;1.80;;
40621;SDS011;26324;52.040;11.528;2023-04-01T22:30:04;1.70;;;1.00;;
40621;SDS011;26324;52.040;11.528;2023-04-01T22:32:28;2.72;;;1.25;;
40621;SDS011;26324;52.040;11.528;2023-04-01T22:38:09;1.73;;;1.13;;
40621;SDS011;26324;52.040;11.528;2023-04-01T22:41:05;2.75;;;1.50;;
40621;SDS011;26324;52.040;11.528;2023-04-01T22:43:40;2.63;;;1.95;;
40621;SDS011;26324;52.040;11.528;2023-04-01T22:51:46;2.42;;;0.82;;
40621;SDS011;26324;52.040;11.528;2023-04-01T22:54:30;2.72;;;1.75;;
40621;SDS011;26324;52.040;11.528;2023-04-01T22:57:02;2.13;;;1.38;;
40621;SDS011;26324;52.040;11.528;2023-04-01T23:02:21;2.78;;;1.65;;
40621;SDS011;26324;52.040;11.528;2023-04-01T23:04:55;2.08;;;1.20;;
40621;SDS011;26324;52.040;11.528;2023-04-01T23:10:17;3.08;;;1.88;;
40621;SDS011;26324;52.040;11.528;2023-04-01T23:13:05;4.38;;;1.98;;
40621;SDS011;26324;52.040;11.528;2023-04-01T23:15:44;4.30;;;2.25;;
40621;SDS011;26324;52.040;11.528;2023-04-01T23:21:18;3.28;;;2.00;;
40621;SDS011;26324;52.040;11.528;2023-04-01T23:26:34;3.67;;;2.05;;
40621;SDS011;26324;52.040;11.528;2023-04-01T23:29:12;5.97;;;1.40;;
40621;SDS011;26324;52.040;11.528;2023-04-01T23:31:42;6.15;;;3.08;;
40621;SDS011;26324;52.040;11.528;2023-04-01T23:36:43;3.65;;;1.27;;
40621;SDS011;26324;52.040;11.528;2023-04-01T23:41:50;3.65;;;1.63;;
40621;SDS011;26324;52.040;11.528;2023-04-01T23:44:19;6.13;;;2.78;;
40621;SDS011;26324;52.040;11.528;2023-04-01T23:46:47;3.17;;;1.65;;
40621;SDS011;26324;52.040;11.528;2023-04-01T23:49:17;6.53;;;1.98;;
40621;SDS011;26324;52.040;11.528;2023-04-01T23:51:53;3.30;;;1.98;;
40621;SDS011;26324;52.040;11.528;2023-04-01T23:54:24;3.75;;;1.98;;
40621;SDS011;26324;52.040;11.528;2023-04-01T23:59:37;3.33;;;1.95;;
